sensor_id;sensor_type;location;lat;lon;timestamp;P1;durP1;ratioP1;P2;durP2;ratioP2
61460;SDS011;47325;50.506;4.472;2023-05-29T00:02:07;5.10;;;2.30;;
61460;SDS011;47325;50.506;4.472;2023-05-29T00:07:52;5.80;;;2.30;;
61460;SDS011;47325;50.506;4.472;2023-05-29T00:13:36;4.10;;;2.20;;
61460;SDS011;47325;50.506;4.472;2023-05-29T00:19:22;5.40;;;2.50;;
61460;SDS011;47325;50.506;4.472;2023-05-29T00:25:08;5.90;;;2.40;;
61460;SDS011;47325;50.506;4.472;2023-05-29T00:30:53;5.00;;;2.50;;
61460;SDS011;47325;50.506;4.472;2023-05-29T00:36:38;4.10;;;2.60;;
61460;SDS011;47325;50.506;4.472;2023-05-29T00:42:22;4.10;;;2.20;;
61460;SDS011;47325;50.506;4.472;2023-05-29T00:48:07;6.00;;;2.50;;
61460;SDS011;47325;50.506;4.472;2023-05-29T00:53:53;4.40;;;2.40;;
61460;SDS011;47325;50.506;4.472;2023-05-29T00:59:38;4.00;;;2.10;;
61460;SDS011;47325;50.506;4.472;2023-05-29T01:05:24;4.10;;;2.40;;
61460;SDS011;47325;50.506;4.472;2023-05-29T01:11:11;4.40;;;2.30;;
61460;SDS011;47325;50.506;4.472;2023-05-29T01:17:00;4.70;;;2.30;;
61460;SDS011;47325;50.506;4.472;2023-05-29T01:22:58;4.30;;;2.30;;
61460;SDS011;47325;50.506;4.472;2023-05-29T01:28:46;6.50;;;2.40;;
61460;SDS011;47325;50.506;4.472;2023-05-29T01:34:32;4.40;;;2.40;;
61460;SDS011;47325;50.506;4.472;2023-05-29T01:40:17;6.20;;;2.50;;
61460;SDS011;47325;50.506;4.472;2023-05-29T01:46:02;4.60;;;2.40;;
61460;SDS011;47325;50.506;4.472;2023-05-29T01:51:47;4.40;;;2.80;;
61460;SDS011;47325;50.506;4.472;2023-05-29T01:57:32;4.40;;;2.60;;
61460;SDS011;47325;50.506;4.472;2023-05-29T02:03:17;5.40;;;2.60;;
61460;SDS011;47325;50.506;4.472;2023-05-29T02:09:02;4.50;;;2.50;;
61460;SDS011;47325;50.506;4.472;2023-05-29T02:14:47;4.50;;;2.30;;
61460;SDS011;47325;50.506;4.472;2023-05-29T02:20:33;3.50;;;2.30;;
61460;SDS011;47325;50.506;4.472;2023-05-29T02:26:18;5.00;;;2.50;;
61460;SDS011;47325;50.506;4.472;2023-05-29T02:32:03;4.30;;;2.50;;
61460;SDS011;47325;50.506;4.472;2023-05-29T02:37:48;4.30;;;2.60;;
61460;SDS011;47325;50.506;4.472;2023-05-29T02:43:35;4.70;;;2.60;;
61460;SDS011;47325;50.506;4.472;2023-05-29T02:49:20;6.00;;;2.60;;
61460;SDS011;47325;50.506;4.472;2023-05-29T02:55:05;5.50;;;2.80;;
61460;SDS011;47325;50.506;4.472;2023-05-29T03:00:50;3.60;;;2.70;;
61460;SDS011;47325;50.506;4.472;2023-05-29T03:06:35;3.60;;;2.30;;
61460;SDS011;47325;50.506;4.472;2023-05-29T03:12:20;3.80;;;2.80;;
61460;SDS011;47325;50.506;4.472;2023-05-29T03:18:04;4.30;;;2.70;;
61460;SDS011;47325;50.506;4.472;2023-05-29T03:23:49;4.50;;;2.80;;
61460;SDS011;47325;50.506;4.472;2023-05-29T03:29:35;4.10;;;2.60;;
61460;SDS011;47325;50.506;4.472;2023-05-29T03:35:20;5.60;;;3.10;;
61460;SDS011;47325;50.506;4.472;2023-05-29T03:41:06;5.70;;;3.00;;
61460;SDS011;47325;50.506;4.472;2023-05-29T03:46:51;4.80;;;2.70;;
61460;SDS011;47325;50.506;4.472;2023-05-29T03:52:41;5.00;;;2.60;;
61460;SDS011;47325;50.506;4.472;2023-05-29T03:58:26;5.00;;;3.00;;
61460;SDS011;47325;50.506;4.472;2023-05-29T04:04:12;4.60;;;2.90;;
61460;SDS011;47325;50.506;4.472;2023-05-29T04:09:58;6.60;;;3.40;;
61460;SDS011;47325;50.506;4.472;2023-05-29T04:15:43;5.30;;;3.10;;
61460;SDS011;47325;50.506;4.472;2023-05-29T04:21:28;5.50;;;2.90;;
61460;SDS011;47325;50.506;4.472;2023-05-29T04:27:12;5.10;;;3.00;;
61460;SDS011;47325;50.506;4.472;2023-05-29T04:32:57;5.40;;;3.20;;
61460;SDS011;47325;50.506;4.472;2023-05-29T04:38:42;5.20;;;3.20;;
61460;SDS011;47325;50.506;4.472;2023-05-29T04:44:27;3.90;;;2.70;;
61460;SDS011;47325;50.506;4.472;2023-05-29T04:50:13;4.80;;;2.80;;
61460;SDS011;47325;50.506;4.472;2023-05-29T04:55:58;5.80;;;2.70;;
61460;SDS011;47325;50.506;4.472;2023-05-29T05:01:43;5.40;;;2.80;;
61460;SDS011;47325;50.506;4.472;2023-05-29T05:07:28;4.70;;;2.80;;
61460;SDS011;47325;50.506;4.472;2023-05-29T05:13:13;6.40;;;2.50;;
61460;SDS011;47325;50.506;4.472;2023-05-29T05:18:58;4.90;;;2.70;;
61460;SDS011;47325;50.506;4.472;2023-05-29T05:24:42;7.00;;;2.70;;
61460;SDS011;47325;50.506;4.472;2023-05-29T05:30:28;4.80;;;2.60;;
61460;SDS011;47325;50.506;4.472;2023-05-29T05:36:13;4.60;;;2.50;;
61460;SDS011;47325;50.506;4.472;2023-05-29T05:41:58;6.40;;;2.50;;
61460;SDS011;47325;50.506;4.472;2023-05-29T05:47:43;6.30;;;2.70;;
61460;SDS011;47325;50.506;4.472;2023-05-29T05:53:28;3.70;;;2.20;;
61460;SDS011;47325;50.506;4.472;2023-05-29T05:59:13;4.60;;;2.40;;
61460;SDS011;47325;50.506;4.472;2023-05-29T06:04:59;7.20;;;2.60;;
61460;SDS011;47325;50.506;4.472;2023-05-29T06:10:45;4.90;;;2.40;;
61460;SDS011;47325;50.506;4.472;2023-05-29T06:16:29;5.00;;;2.20;;
61460;SDS011;47325;50.506;4.472;2023-05-29T06:22:15;5.40;;;2.20;;
61460;SDS011;47325;50.506;4.472;2023-05-29T06:28:00;4.60;;;2.10;;
61460;SDS011;47325;50.506;4.472;2023-05-29T06:33:45;4.80;;;2.00;;
61460;SDS011;47325;50.506;4.472;2023-05-29T06:39:29;3.70;;;1.90;;
61460;SDS011;47325;50.506;4.472;2023-05-29T06:45:14;6.70;;;2.00;;
61460;SDS011;47325;50.506;4.472;2023-05-29T06:50:59;5.40;;;2.00;;
61460;SDS011;47325;50.506;4.472;2023-05-29T06:56:44;5.80;;;2.30;;
61460;SDS011;47325;50.506;4.472;2023-05-29T07:02:48;6.10;;;2.10;;
61460;SDS011;47325;50.506;4.472;2023-05-29T07:08:34;8.20;;;2.30;;
61460;SDS011;47325;50.506;4.472;2023-05-29T07:14:19;4.40;;;1.90;;
61460;SDS011;47325;50.506;4.472;2023-05-29T07:20:04;7.40;;;2.20;;
61460;SDS011;47325;50.506;4.472;2023-05-29T07:25:50;6.10;;;1.90;;
61460;SDS011;47325;50.506;4.472;2023-05-29T07:31:35;5.30;;;1.90;;
61460;SDS011;47325;50.506;4.472;2023-05-29T07:37:21;4.80;;;2.20;;
61460;SDS011;47325;50.506;4.472;2023-05-29T07:43:05;6.40;;;2.00;;
61460;SDS011;47325;50.506;4.472;2023-05-29T07:48:51;7.00;;;1.90;;
61460;SDS011;47325;50.506;4.472;2023-05-29T07:54:36;5.80;;;2.00;;
61460;SDS011;47325;50.506;4.472;2023-05-29T08:00:22;5.90;;;1.80;;
61460;SDS011;47325;50.506;4.472;2023-05-29T08:06:07;8.20;;;2.20;;
61460;SDS011;47325;50.506;4.472;2023-05-29T08:11:51;4.70;;;1.90;;
61460;SDS011;47325;50.506;4.472;2023-05-29T08:17:37;4.40;;;1.80;;
61460;SDS011;47325;50.506;4.472;2023-05-29T08:23:22;4.70;;;1.80;;
61460;SDS011;47325;50.506;4.472;2023-05-29T08:29:08;5.40;;;1.90;;
61460;SDS011;47325;50.506;4.472;2023-05-29T08:34:52;7.80;;;2.20;;
61460;SDS011;47325;50.506;4.472;2023-05-29T08:40:37;6.20;;;2.00;;
61460;SDS011;47325;50.506;4.472;2023-05-29T08:46:22;7.60;;;2.20;;
61460;SDS011;47325;50.506;4.472;2023-05-29T08:52:09;5.30;;;1.90;;
61460;SDS011;47325;50.506;4.472;2023-05-29T08:57:56;5.90;;;1.90;;
61460;SDS011;47325;50.506;4.472;2023-05-29T09:03:41;5.50;;;2.00;;
61460;SDS011;47325;50.506;4.472;2023-05-29T09:09:26;8.80;;;2.00;;
61460;SDS011;47325;50.506;4.472;2023-05-29T09:15:13;9.50;;;2.30;;
61460;SDS011;47325;50.506;4.472;2023-05-29T09:21:00;6.00;;;1.80;;
61460;SDS011;47325;50.506;4.472;2023-05-29T09:26:52;6.40;;;1.90;;
61460;SDS011;47325;50.506;4.472;2023-05-29T09:32:37;5.80;;;1.90;;
61460;SDS011;47325;50.506;4.472;2023-05-29T09:38:25;11.20;;;4.20;;
61460;SDS011;47325;50.506;4.472;2023-05-29T09:44:30;12.90;;;4.70;;
61460;SDS011;47325;50.506;4.472;2023-05-29T09:50:21;11.60;;;4.30;;
61460;SDS011;47325;50.506;4.472;2023-05-29T09:56:10;10.30;;;4.40;;
61460;SDS011;47325;50.506;4.472;2023-05-29T10:01:57;14.20;;;5.30;;
61460;SDS011;47325;50.506;4.472;2023-05-29T10:07:46;11.80;;;4.00;;
61460;SDS011;47325;50.506;4.472;2023-05-29T10:13:32;11.00;;;3.70;;
61460;SDS011;47325;50.506;4.472;2023-05-29T10:19:21;11.90;;;3.90;;
61460;SDS011;47325;50.506;4.472;2023-05-29T10:25:07;9.80;;;3.60;;
61460;SDS011;47325;50.506;4.472;2023-05-29T10:30:57;11.90;;;3.40;;
61460;SDS011;47325;50.506;4.472;2023-05-29T10:36:47;7.50;;;3.10;;
61460;SDS011;47325;50.506;4.472;2023-05-29T10:42:49;8.20;;;3.40;;
61460;SDS011;47325;50.506;4.472;2023-05-29T10:48:42;11.50;;;4.90;;
61460;SDS011;47325;50.506;4.472;2023-05-29T10:54:27;20.30;;;9.80;;
61460;SDS011;47325;50.506;4.472;2023-05-29T11:00:15;24.70;;;9.80;;
61460;SDS011;47325;50.506;4.472;2023-05-29T11:06:04;18.20;;;8.10;;
61460;SDS011;47325;50.506;4.472;2023-05-29T11:11:51;23.50;;;10.50;;
61460;SDS011;47325;50.506;4.472;2023-05-29T11:17:47;20.50;;;8.50;;
61460;SDS011;47325;50.506;4.472;2023-05-29T11:23:32;28.00;;;10.00;;
61460;SDS011;47325;50.506;4.472;2023-05-29T11:29:17;31.00;;;14.00;;
61460;SDS011;47325;50.506;4.472;2023-05-29T11:35:07;28.70;;;11.90;;
61460;SDS011;47325;50.506;4.472;2023-05-29T11:40:52;19.70;;;8.30;;
61460;SDS011;47325;50.506;4.472;2023-05-29T11:46:37;24.70;;;10.30;;
61460;SDS011;47325;50.506;4.472;2023-05-29T11:52:22;26.60;;;11.90;;
61460;SDS011;47325;50.506;4.472;2023-05-29T11:58:06;42.20;;;18.60;;
61460;SDS011;47325;50.506;4.472;2023-05-29T12:03:52;19.30;;;8.20;;
61460;SDS011;47325;50.506;4.472;2023-05-29T12:09:37;20.10;;;7.90;;
61460;SDS011;47325;50.506;4.472;2023-05-29T12:15:22;8.90;;;4.10;;
61460;SDS011;47325;50.506;4.472;2023-05-29T12:21:07;26.70;;;12.30;;
61460;SDS011;47325;50.506;4.472;2023-05-29T12:26:52;19.90;;;7.60;;
61460;SDS011;47325;50.506;4.472;2023-05-29T12:32:40;15.90;;;5.80;;
61460;SDS011;47325;50.506;4.472;2023-05-29T12:38:26;14.40;;;6.10;;
61460;SDS011;47325;50.506;4.472;2023-05-29T12:44:11;7.90;;;3.00;;
61460;SDS011;47325;50.506;4.472;2023-05-29T12:49:56;11.40;;;3.90;;
61460;SDS011;47325;50.506;4.472;2023-05-29T12:55:43;11.80;;;3.50;;
61460;SDS011;47325;50.506;4.472;2023-05-29T13:01:28;9.60;;;3.30;;
61460;SDS011;47325;50.506;4.472;2023-05-29T13:07:13;9.10;;;2.70;;
61460;SDS011;47325;50.506;4.472;2023-05-29T13:12:57;5.50;;;2.70;;
61460;SDS011;47325;50.506;4.472;2023-05-29T13:18:43;8.50;;;2.70;;
61460;SDS011;47325;50.506;4.472;2023-05-29T13:24:28;6.60;;;2.90;;
61460;SDS011;47325;50.506;4.472;2023-05-29T13:30:14;6.90;;;2.70;;
61460;SDS011;47325;50.506;4.472;2023-05-29T13:35:59;6.60;;;2.40;;
61460;SDS011;47325;50.506;4.472;2023-05-29T13:41:45;7.30;;;2.40;;
61460;SDS011;47325;50.506;4.472;2023-05-29T13:47:29;5.60;;;2.30;;
61460;SDS011;47325;50.506;4.472;2023-05-29T13:53:14;7.30;;;2.40;;
61460;SDS011;47325;50.506;4.472;2023-05-29T13:58:59;8.00;;;2.30;;
61460;SDS011;47325;50.506;4.472;2023-05-29T14:04:44;7.30;;;2.40;;
61460;SDS011;47325;50.506;4.472;2023-05-29T14:10:28;8.50;;;2.60;;
61460;SDS011;47325;50.506;4.472;2023-05-29T14:16:14;7.10;;;2.60;;
61460;SDS011;47325;50.506;4.472;2023-05-29T14:22:02;7.30;;;2.40;;
61460;SDS011;47325;50.506;4.472;2023-05-29T14:27:47;8.50;;;2.40;;
61460;SDS011;47325;50.506;4.472;2023-05-29T14:33:31;5.30;;;2.40;;
61460;SDS011;47325;50.506;4.472;2023-05-29T14:39:17;7.10;;;2.20;;
61460;SDS011;47325;50.506;4.472;2023-05-29T14:45:06;7.90;;;2.50;;
61460;SDS011;47325;50.506;4.472;2023-05-29T14:50:51;7.70;;;2.30;;
61460;SDS011;47325;50.506;4.472;2023-05-29T14:56:36;7.30;;;2.50;;
61460;SDS011;47325;50.506;4.472;2023-05-29T15:02:21;6.10;;;2.10;;
61460;SDS011;47325;50.506;4.472;2023-05-29T15:08:06;7.40;;;2.30;;
61460;SDS011;47325;50.506;4.472;2023-05-29T15:13:51;6.70;;;2.20;;
61460;SDS011;47325;50.506;4.472;2023-05-29T15:19:36;7.00;;;2.30;;
61460;SDS011;47325;50.506;4.472;2023-05-29T15:25:21;7.30;;;2.30;;
61460;SDS011;47325;50.506;4.472;2023-05-29T15:31:06;8.80;;;2.30;;
61460;SDS011;47325;50.506;4.472;2023-05-29T15:36:52;7.70;;;2.50;;
61460;SDS011;47325;50.506;4.472;2023-05-29T15:42:37;10.80;;;2.70;;
61460;SDS011;47325;50.506;4.472;2023-05-29T15:48:25;9.10;;;2.50;;
61460;SDS011;47325;50.506;4.472;2023-05-29T15:54:10;5.70;;;2.20;;
61460;SDS011;47325;50.506;4.472;2023-05-29T15:59:55;6.00;;;2.20;;
61460;SDS011;47325;50.506;4.472;2023-05-29T16:05:40;8.10;;;2.10;;
61460;SDS011;47325;50.506;4.472;2023-05-29T16:11:25;8.10;;;2.30;;
61460;SDS011;47325;50.506;4.472;2023-05-29T16:17:10;7.70;;;2.30;;
61460;SDS011;47325;50.506;4.472;2023-05-29T16:22:54;5.90;;;2.20;;
61460;SDS011;47325;50.506;4.472;2023-05-29T16:28:39;6.30;;;2.10;;
61460;SDS011;47325;50.506;4.472;2023-05-29T16:34:24;6.30;;;2.30;;
61460;SDS011;47325;50.506;4.472;2023-05-29T16:40:10;7.60;;;2.20;;
61460;SDS011;47325;50.506;4.472;2023-05-29T16:45:55;5.80;;;2.40;;
61460;SDS011;47325;50.506;4.472;2023-05-29T16:51:41;5.80;;;2.20;;
61460;SDS011;47325;50.506;4.472;2023-05-29T16:57:26;8.50;;;2.40;;
61460;SDS011;47325;50.506;4.472;2023-05-29T17:03:10;7.60;;;2.20;;
61460;SDS011;47325;50.506;4.472;2023-05-29T17:08:55;6.10;;;2.20;;
61460;SDS011;47325;50.506;4.472;2023-05-29T17:14:40;5.80;;;2.20;;
61460;SDS011;47325;50.506;4.472;2023-05-29T17:20:25;5.60;;;2.10;;
61460;SDS011;47325;50.506;4.472;2023-05-29T17:26:10;6.80;;;2.10;;
61460;SDS011;47325;50.506;4.472;2023-05-29T17:31:55;5.30;;;1.70;;
61460;SDS011;47325;50.506;4.472;2023-05-29T17:37:41;6.70;;;2.20;;
61460;SDS011;47325;50.506;4.472;2023-05-29T17:43:26;5.10;;;2.00;;
61460;SDS011;47325;50.506;4.472;2023-05-29T17:49:10;7.80;;;2.20;;
61460;SDS011;47325;50.506;4.472;2023-05-29T17:54:55;6.40;;;2.30;;
61460;SDS011;47325;50.506;4.472;2023-05-29T18:00:41;8.00;;;2.10;;
61460;SDS011;47325;50.506;4.472;2023-05-29T18:06:25;6.20;;;2.00;;
61460;SDS011;47325;50.506;4.472;2023-05-29T18:12:10;5.80;;;2.00;;
61460;SDS011;47325;50.506;4.472;2023-05-29T18:17:56;7.00;;;2.20;;
61460;SDS011;47325;50.506;4.472;2023-05-29T18:23:41;5.70;;;2.00;;
61460;SDS011;47325;50.506;4.472;2023-05-29T18:29:25;6.30;;;2.00;;
61460;SDS011;47325;50.506;4.472;2023-05-29T18:35:11;8.90;;;2.00;;
61460;SDS011;47325;50.506;4.472;2023-05-29T18:40:56;7.40;;;1.80;;
61460;SDS011;47325;50.506;4.472;2023-05-29T18:46:41;6.40;;;2.00;;
61460;SDS011;47325;50.506;4.472;2023-05-29T18:52:26;6.10;;;1.90;;
61460;SDS011;47325;50.506;4.472;2023-05-29T18:58:10;5.90;;;2.10;;
61460;SDS011;47325;50.506;4.472;2023-05-29T19:03:55;6.00;;;2.10;;
61460;SDS011;47325;50.506;4.472;2023-05-29T19:09:42;6.00;;;2.00;;
61460;SDS011;47325;50.506;4.472;2023-05-29T19:15:27;4.30;;;1.80;;
61460;SDS011;47325;50.506;4.472;2023-05-29T19:21:12;4.40;;;1.60;;
61460;SDS011;47325;50.506;4.472;2023-05-29T19:26:57;5.90;;;1.90;;
61460;SDS011;47325;50.506;4.472;2023-05-29T19:32:41;5.20;;;1.80;;
61460;SDS011;47325;50.506;4.472;2023-05-29T19:38:27;4.20;;;1.60;;
61460;SDS011;47325;50.506;4.472;2023-05-29T19:44:11;3.40;;;1.70;;
61460;SDS011;47325;50.506;4.472;2023-05-29T19:49:57;5.60;;;1.80;;
61460;SDS011;47325;50.506;4.472;2023-05-29T19:55:42;5.30;;;2.10;;
61460;SDS011;47325;50.506;4.472;2023-05-29T20:01:27;5.70;;;1.80;;
61460;SDS011;47325;50.506;4.472;2023-05-29T20:07:12;5.50;;;1.70;;
61460;SDS011;47325;50.506;4.472;2023-05-29T20:12:58;5.10;;;1.60;;
61460;SDS011;47325;50.506;4.472;2023-05-29T20:18:43;4.20;;;1.80;;
61460;SDS011;47325;50.506;4.472;2023-05-29T20:24:27;3.50;;;1.60;;
61460;SDS011;47325;50.506;4.472;2023-05-29T20:30:13;4.30;;;1.70;;
61460;SDS011;47325;50.506;4.472;2023-05-29T20:35:57;4.40;;;1.80;;
61460;SDS011;47325;50.506;4.472;2023-05-29T20:41:43;4.00;;;1.90;;
61460;SDS011;47325;50.506;4.472;2023-05-29T20:47:28;3.60;;;1.60;;
61460;SDS011;47325;50.506;4.472;2023-05-29T20:53:12;5.00;;;1.70;;
61460;SDS011;47325;50.506;4.472;2023-05-29T20:58:57;4.00;;;1.50;;
61460;SDS011;47325;50.506;4.472;2023-05-29T21:04:42;3.30;;;1.60;;
61460;SDS011;47325;50.506;4.472;2023-05-29T21:10:27;5.10;;;1.70;;
61460;SDS011;47325;50.506;4.472;2023-05-29T21:16:12;5.20;;;1.90;;
61460;SDS011;47325;50.506;4.472;2023-05-29T21:21:57;3.60;;;1.60;;
61460;SDS011;47325;50.506;4.472;2023-05-29T21:27:43;4.40;;;1.70;;
61460;SDS011;47325;50.506;4.472;2023-05-29T21:33:28;4.30;;;1.60;;
61460;SDS011;47325;50.506;4.472;2023-05-29T21:39:13;3.70;;;1.60;;
61460;SDS011;47325;50.506;4.472;2023-05-29T21:44:57;4.80;;;1.60;;
61460;SDS011;47325;50.506;4.472;2023-05-29T21:50:42;4.90;;;1.50;;
61460;SDS011;47325;50.506;4.472;2023-05-29T21:56:27;4.30;;;1.70;;
61460;SDS011;47325;50.506;4.472;2023-05-29T22:02:12;5.10;;;1.70;;
61460;SDS011;47325;50.506;4.472;2023-05-29T22:07:57;4.40;;;1.50;;
61460;SDS011;47325;50.506;4.472;2023-05-29T22:13:42;5.10;;;1.80;;
61460;SDS011;47325;50.506;4.472;2023-05-29T22:19:28;3.90;;;1.60;;
61460;SDS011;47325;50.506;4.472;2023-05-29T22:25:13;4.40;;;1.60;;
61460;SDS011;47325;50.506;4.472;2023-05-29T22:30:58;4.10;;;1.40;;
61460;SDS011;47325;50.506;4.472;2023-05-29T22:36:43;5.30;;;1.60;;
61460;SDS011;47325;50.506;4.472;2023-05-29T22:42:28;4.70;;;1.80;;
61460;SDS011;47325;50.506;4.472;2023-05-29T22:48:13;5.60;;;1.60;;
61460;SDS011;47325;50.506;4.472;2023-05-29T22:53:59;4.20;;;1.60;;
61460;SDS011;47325;50.506;4.472;2023-05-29T22:59:43;3.20;;;1.60;;
61460;SDS011;47325;50.506;4.472;2023-05-29T23:05:28;5.40;;;1.80;;
61460;SDS011;47325;50.506;4.472;2023-05-29T23:11:13;4.60;;;1.70;;
61460;SDS011;47325;50.506;4.472;2023-05-29T23:16:58;3.60;;;1.60;;
61460;SDS011;47325;50.506;4.472;2023-05-29T23:22:43;4.30;;;1.50;;
61460;SDS011;47325;50.506;4.472;2023-05-29T23:28:27;6.40;;;1.70;;
61460;SDS011;47325;50.506;4.472;2023-05-29T23:34:12;3.50;;;1.40;;
61460;SDS011;47325;50.506;4.472;2023-05-29T23:39:57;5.60;;;1.60;;
61460;SDS011;47325;50.506;4.472;2023-05-29T23:45:42;6.40;;;1.70;;
61460;SDS011;47325;50.506;4.472;2023-05-29T23:51:27;4.20;;;1.60;;
61460;SDS011;47325;50.506;4.472;2023-05-29T23:57:15;5.00;;;1.40;;
